MMVA/VSA METAR and TAF weather

Enter ICAO airport designator
Station Type Date Time Source
MMVA METAR 2021/09/25 01:48 UTC NOAA

MMVA 250148Z 00000KT 4SM BKN015CB OVC070 25/25 A2994 RMK 8/96/ OCNL DROPS LTGCC SSW


Station Type Date Time Source
MMVA Decoded METAR 2021/09/25 01:48 UTC NOAA

Villahermosa , Mexico (MMVA) 18-00N 092-49W
Sep 24, 2021 - 09:48 PM EDT / 2021.09.25 0148 UTC
Wind: Calm:0
Visibility: 4 mile(s):0
Sky conditions: overcast
Weather: Cumulonimbus clouds, lightning observed
Temperature: 77 F (25 C)
Dew Point: 77 F (25 C)
Relative Humidity: 100%
Pressure (altimeter): 29.94 in. Hg (1013 hPa)
ob: MMVA 250148Z 00000KT 4SM BKN015CB OVC070 25/25 A2994 RMK 8/96/ OCNL DROPS LTGCC SSW
cycle: 2

Station Type Date Time Source
MMVA TAF 2021/09/25 00:26 UTC NOAA

TAF
AMD MMVA 250019Z 2500/2518 07005KT 1 1/2SM TSR VV008CB
FM250035 06005KT 3SM RA BKN010CB OVC080
FM250100 03005KT 5SM RA BKN015CB OVC080
FM250130 03005KT 5SM HZ SCT010 BKN080
FM251000 25004KT 2SM -DZ BR BKN005 OVC010
TEMPO 2510/2514 1/2SM -DZ FG VV004
FM251500 26005KT 2SM -RA BR BKN010 BKN090

Example: see airport list